createdAt,value
2018-08-18T00:00:08.215Z,63.00
2018-08-18T00:02:38.405Z,63.00
2018-08-18T00:05:08.513Z,63.30
2018-08-18T00:07:37.089Z,63.00
2018-08-18T00:10:07.902Z,62.90
2018-08-18T00:12:36.388Z,62.90
2018-08-18T00:15:05.832Z,62.50
2018-08-18T00:17:34.751Z,62.40
2018-08-18T00:20:03.321Z,62.40
2018-08-18T00:22:31.801Z,62.30
2018-08-18T00:25:00.271Z,62.40
2018-08-18T00:27:28.823Z,62.70
2018-08-18T00:30:02.506Z,63.10
2018-08-18T00:32:31.020Z,63.00
2018-08-18T00:34:59.485Z,63.40
2018-08-18T00:37:28.041Z,63.70
2018-08-18T00:39:57.114Z,64.10
2018-08-18T00:42:25.585Z,65.40
2018-08-18T00:44:54.076Z,65.60
2018-08-18T00:47:22.823Z,66.70
2018-08-18T00:49:51.348Z,67.00
2018-08-18T00:52:19.818Z,67.80
2018-08-18T00:54:48.333Z,68.70
2018-08-18T00:57:28.242Z,68.70
2018-08-18T00:59:57.072Z,69.50
2018-08-18T01:02:25.919Z,70.20
2018-08-18T01:04:55.309Z,70.50
2018-08-18T01:07:24.723Z,71.00
2018-08-18T01:09:53.359Z,71.00
2018-08-18T01:12:22.954Z,71.40
2018-08-18T01:14:51.591Z,72.00
2018-08-18T01:17:20.078Z,72.60
2018-08-18T01:19:48.655Z,73.60
2018-08-18T01:22:17.137Z,73.40
2018-08-18T01:24:45.612Z,73.60
2018-08-18T01:27:14.158Z,74.40
2018-08-18T01:29:43.955Z,74.30
2018-08-18T01:32:12.446Z,74.70
2018-08-18T01:34:40.951Z,74.30
2018-08-18T01:37:19.637Z,74.30
2018-08-18T01:39:50.027Z,74.30
2018-08-18T01:42:18.491Z,74.40
2018-08-18T01:44:46.960Z,74.40
2018-08-18T01:47:15.986Z,74.70
2018-08-18T01:49:44.467Z,75.00
2018-08-18T01:52:18.311Z,75.60
2018-08-18T01:54:46.845Z,75.20
2018-08-18T01:57:17.794Z,75.40
2018-08-18T01:59:46.915Z,75.80
2018-08-18T02:02:16.673Z,76.10
2018-08-18T02:04:45.698Z,76.20
2018-08-18T02:07:23.500Z,76.40
2018-08-18T02:09:52.096Z,76.20
2018-08-18T02:12:20.679Z,76.10
2018-08-18T02:14:49.162Z,76.30
2018-08-18T02:17:20.249Z,76.40
2018-08-18T02:19:48.918Z,76.50
2018-08-18T02:22:17.422Z,76.50
2018-08-18T02:24:46.139Z,77.10
2018-08-18T02:27:14.756Z,77.50
2018-08-18T02:29:43.308Z,77.50
2018-08-18T02:32:27.271Z,78.50
2018-08-18T02:34:56.407Z,78.10
2018-08-18T02:37:25.352Z,78.30
2018-08-18T02:39:53.885Z,78.90
2018-08-18T02:42:22.326Z,78.90
2018-08-18T02:44:50.972Z,78.50
2018-08-18T02:47:19.422Z,78.30
2018-08-18T02:49:48.901Z,78.30
2018-08-18T02:52:25.542Z,78.10
2018-08-18T02:55:03.565Z,77.90
2018-08-18T02:57:42.042Z,78.20
2018-08-18T03:00:20.588Z,78.50
2018-08-18T03:02:49.132Z,78.40
2018-08-18T03:05:17.610Z,78.50
2018-08-18T03:07:49.127Z,78.80
2018-08-18T03:10:22.708Z,78.80
2018-08-18T03:12:51.661Z,78.80
2018-08-18T03:16:23.086Z,79.20
2018-08-18T03:18:52.724Z,79.50
2018-08-18T03:21:28.426Z,79.60
2018-08-18T03:24:16.639Z,79.70
2018-08-18T03:26:52.114Z,80.40
2018-08-18T03:29:21.689Z,80.90
2018-08-18T03:31:50.486Z,81.10
2018-08-18T03:34:19.235Z,81.30
2018-08-18T03:36:49.696Z,81.30
2018-08-18T03:39:24.488Z,81.10
2018-08-18T03:41:54.341Z,81.50
2018-08-18T03:44:22.906Z,81.10
2018-08-18T03:46:51.408Z,81.10
2018-08-18T03:49:20.157Z,81.00
2018-08-18T03:51:49.950Z,80.70
2018-08-18T03:54:18.557Z,81.00
2018-08-18T03:56:47.464Z,81.10
2018-08-18T03:59:15.976Z,81.10
2018-08-18T04:01:49.259Z,81.10
2018-08-18T04:04:18.609Z,80.80
2018-08-18T04:06:48.298Z,80.50
2018-08-18T04:09:18.038Z,80.40
2018-08-18T04:11:46.581Z,80.30
2018-08-18T04:14:16.470Z,80.40
2018-08-18T04:16:52.005Z,80.50
2018-08-18T04:19:21.674Z,80.60
2018-08-18T04:21:52.299Z,80.80
2018-08-18T04:24:20.770Z,81.10
2018-08-18T04:26:50.831Z,81.10
2018-08-18T04:29:20.692Z,81.40
2018-08-18T04:31:49.206Z,81.50
2018-08-18T04:34:17.693Z,81.70
2018-08-18T04:36:46.160Z,82.00
2018-08-18T04:39:14.835Z,81.70
2018-08-18T04:41:43.450Z,81.70
2018-08-18T04:44:11.944Z,81.60
2018-08-18T04:46:40.386Z,81.70
2018-08-18T04:49:08.866Z,81.60
2018-08-18T04:51:37.314Z,81.70
2018-08-18T04:54:05.863Z,81.70
2018-08-18T04:56:34.289Z,81.80
2018-08-18T04:59:02.782Z,81.70
2018-08-18T05:01:31.226Z,81.80
2018-08-18T05:04:08.165Z,82.20
2018-08-18T05:06:38.653Z,82.20
2018-08-18T05:09:09.506Z,82.10
2018-08-18T05:11:38.194Z,82.10
2018-08-18T05:14:06.760Z,82.20
2018-08-18T05:16:37.854Z,82.20
2018-08-18T05:19:06.500Z,82.20
2018-08-18T05:21:35.132Z,82.30
2018-08-18T05:24:19.424Z,82.30
2018-08-18T05:26:48.313Z,82.20
2018-08-18T05:29:17.803Z,82.20
2018-08-18T05:31:46.802Z,81.90
2018-08-18T05:34:17.408Z,81.60
2018-08-18T05:36:45.906Z,81.40
2018-08-18T05:39:15.391Z,81.40
2018-08-18T05:41:43.969Z,81.40
2018-08-18T05:44:12.472Z,81.20
2018-08-18T05:46:41.001Z,81.10
2018-08-18T05:49:15.112Z,81.20
2018-08-18T05:51:49.976Z,81.00
2018-08-18T05:54:23.077Z,80.90
2018-08-18T05:56:51.516Z,80.70
2018-08-18T05:59:19.980Z,80.60
2018-08-18T06:01:48.546Z,80.60
2018-08-18T06:04:18.372Z,80.40
2018-08-18T06:06:47.553Z,80.30
2018-08-18T06:09:18.527Z,79.90
2018-08-18T06:11:47.121Z,80.00
2018-08-18T06:14:16.203Z,79.90
2018-08-18T06:16:45.109Z,79.60
2018-08-18T06:19:13.618Z,79.20
2018-08-18T06:21:42.066Z,79.20
2018-08-18T06:24:10.841Z,79.10
2018-08-18T06:26:39.301Z,78.20
2018-08-18T06:29:07.810Z,77.70
2018-08-18T06:31:51.816Z,77.30
2018-08-18T06:34:20.293Z,76.40
2018-08-18T06:36:48.730Z,75.80
2018-08-18T06:39:17.198Z,75.80
2018-08-18T06:41:45.693Z,74.90
2018-08-18T06:44:17.299Z,74.40
2018-08-18T06:46:47.826Z,74.00
2018-08-18T06:49:16.980Z,73.70
2018-08-18T06:51:45.422Z,73.80
2018-08-18T06:54:13.894Z,73.90
2018-08-18T06:56:43.370Z,73.30
2018-08-18T06:59:11.830Z,72.80
2018-08-18T07:01:40.462Z,72.30
2018-08-18T07:04:13.662Z,71.60
2018-08-18T07:06:42.275Z,71.60
2018-08-18T07:09:12.735Z,71.40
2018-08-18T07:11:43.846Z,71.20
2018-08-18T07:14:13.116Z,71.30
2018-08-18T07:16:41.562Z,71.50
2018-08-18T07:19:10.074Z,71.40
2018-08-18T07:21:38.541Z,70.80
2018-08-18T07:24:07.053Z,71.10
2018-08-18T07:26:35.511Z,71.00
2018-08-18T07:29:04.198Z,70.70
2018-08-18T07:31:32.530Z,70.80
2018-08-18T07:34:01.008Z,71.00
2018-08-18T07:36:29.514Z,70.20
2018-08-18T07:38:57.972Z,70.10
2018-08-18T07:41:26.452Z,69.50
2018-08-18T07:43:54.890Z,69.00
2018-08-18T07:46:23.424Z,67.70
2018-08-18T07:48:52.019Z,67.60
2018-08-18T07:51:20.494Z,67.20
2018-08-18T07:53:48.932Z,66.40
2018-08-18T07:56:17.398Z,66.50
2018-08-18T07:58:45.804Z,66.50
2018-08-18T08:01:14.454Z,66.30
2018-08-18T08:03:42.894Z,65.80
2018-08-18T08:06:11.354Z,65.30
2018-08-18T08:08:45.225Z,64.20
2018-08-18T08:11:14.500Z,63.40
2018-08-18T08:13:42.944Z,62.30
2018-08-18T08:16:11.453Z,63.40
2018-08-18T08:18:39.912Z,62.30
2018-08-18T08:21:13.258Z,61.70
2018-08-18T08:23:41.785Z,61.60
2018-08-18T08:26:10.415Z,61.10
2018-08-18T08:28:38.872Z,60.30
2018-08-18T08:31:07.387Z,59.80
2018-08-18T08:33:37.300Z,59.60
2018-08-18T08:36:12.434Z,59.50
2018-08-18T08:38:54.441Z,59.20
2018-08-18T08:41:24.814Z,58.50
2018-08-18T08:43:53.230Z,57.10
2018-08-18T08:46:23.508Z,56.30
2018-08-18T08:48:53.441Z,57.00
2018-08-18T08:51:21.955Z,55.90
2018-08-18T08:53:50.571Z,55.90
2018-08-18T08:56:24.509Z,56.00
2018-08-18T08:58:53.008Z,55.00
2018-08-18T09:01:21.989Z,55.10
2018-08-18T09:03:50.624Z,55.50
2018-08-18T09:06:19.179Z,54.80
2018-08-18T09:08:51.546Z,54.60
2018-08-18T09:11:20.834Z,54.10
2018-08-18T09:14:00.747Z,52.80
2018-08-18T09:16:30.973Z,52.20
2018-08-18T09:18:59.477Z,52.50
2018-08-18T09:21:30.348Z,51.60
2018-08-18T09:24:07.680Z,50.70
2018-08-18T09:26:41.326Z,50.70
2018-08-18T09:29:09.878Z,51.40
2018-08-18T09:31:38.365Z,50.50
2018-08-18T09:34:06.825Z,50.70
2018-08-18T09:36:35.286Z,49.40
2018-08-18T09:39:05.111Z,49.00
2018-08-18T09:41:33.596Z,48.90
2018-08-18T09:44:02.048Z,47.70
2018-08-18T09:46:30.535Z,48.00
2018-08-18T09:48:59.249Z,48.20
2018-08-18T09:51:27.778Z,47.30
2018-08-18T09:53:56.274Z,47.30
2018-08-18T09:56:24.806Z,46.80
2018-08-18T09:58:53.243Z,46.70
2018-08-18T10:01:21.734Z,46.60
2018-08-18T10:03:50.177Z,46.70
2018-08-18T10:06:18.710Z,45.90
2018-08-18T10:08:47.171Z,45.20
2018-08-18T10:11:15.764Z,46.00
2018-08-18T10:13:44.205Z,44.30
2018-08-18T10:16:12.659Z,44.90
2018-08-18T10:18:45.309Z,43.00
2018-08-18T10:21:13.810Z,42.10
2018-08-18T10:23:42.259Z,41.80
2018-08-18T10:26:10.939Z,41.50
2018-08-18T10:28:39.518Z,42.10
2018-08-18T10:31:08.517Z,41.30
2018-08-18T10:33:36.945Z,40.80
2018-08-18T10:36:05.442Z,40.90
2018-08-18T10:38:33.903Z,39.20
2018-08-18T10:41:03.395Z,38.60
2018-08-18T10:43:32.181Z,37.80
2018-08-18T10:46:00.685Z,38.30
2018-08-18T10:48:29.160Z,40.00
2018-08-18T10:51:20.639Z,40.00
2018-08-18T10:53:49.282Z,38.60
2018-08-18T10:56:17.713Z,39.50
2018-08-18T10:59:01.670Z,37.50
2018-08-18T11:01:30.160Z,36.20
2018-08-18T11:03:59.041Z,37.20
2018-08-18T11:06:32.657Z,39.00
2018-08-18T11:09:01.827Z,36.80
2018-08-18T11:11:31.923Z,36.70
2018-08-18T11:14:00.718Z,36.80
2018-08-18T11:16:30.105Z,37.60
2018-08-18T11:18:59.383Z,37.40
2018-08-18T11:21:32.042Z,37.90
2018-08-18T11:24:07.343Z,36.50
2018-08-18T11:26:36.916Z,36.70
2018-08-18T11:29:15.986Z,34.70
2018-08-18T11:31:45.088Z,34.90
2018-08-18T11:34:13.649Z,34.50
2018-08-18T11:36:57.827Z,35.00
2018-08-18T11:39:26.362Z,35.70
2018-08-18T11:41:55.715Z,35.80
2018-08-18T11:44:24.215Z,33.90
2018-08-18T11:46:52.657Z,33.90
2018-08-18T11:49:21.239Z,35.60
2018-08-18T11:51:49.725Z,34.30
2018-08-18T11:54:18.244Z,33.80
2018-08-18T11:56:51.809Z,32.00
2018-08-18T11:59:20.329Z,32.50
2018-08-18T12:01:50.491Z,31.10
2018-08-18T12:04:20.425Z,31.50
2018-08-18T12:06:54.459Z,31.90
2018-08-18T12:09:23.476Z,30.80
2018-08-18T12:11:52.118Z,31.60
2018-08-18T12:14:20.771Z,31.40
2018-08-18T12:16:49.239Z,31.60
2018-08-18T12:19:17.839Z,31.20
2018-08-18T12:21:47.018Z,30.50
2018-08-18T12:24:18.067Z,30.30
2018-08-18T12:26:57.615Z,30.30
2018-08-18T12:29:26.269Z,31.10
2018-08-18T12:31:54.622Z,29.60
2018-08-18T12:34:23.118Z,29.60
2018-08-18T12:36:51.574Z,29.70
2018-08-18T12:39:20.027Z,29.90
2018-08-18T12:41:48.484Z,29.50
2018-08-18T12:44:17.644Z,29.50
2018-08-18T12:46:49.072Z,28.90
2018-08-18T12:49:17.544Z,29.20
2018-08-18T12:51:46.038Z,29.40
2018-08-18T12:54:14.544Z,29.60
2018-08-18T12:56:43.998Z,30.00
2018-08-18T12:59:12.448Z,29.90
2018-08-18T13:01:44.105Z,29.50
2018-08-18T13:04:20.413Z,31.00
2018-08-18T13:06:49.862Z,30.10
2018-08-18T13:09:19.683Z,29.70
2018-08-18T13:11:49.416Z,30.00
2018-08-18T13:14:19.560Z,29.80
2018-08-18T13:16:48.087Z,30.00
2018-08-18T13:19:18.523Z,28.80
2018-08-18T13:21:47.083Z,29.40
2018-08-18T13:24:15.762Z,28.80
2018-08-18T13:26:44.242Z,29.30
2018-08-18T13:29:12.678Z,30.20
2018-08-18T13:31:42.884Z,29.10
2018-08-18T13:34:14.044Z,29.90
2018-08-18T13:36:43.460Z,31.20
2018-08-18T13:39:15.718Z,30.40
2018-08-18T13:41:45.109Z,30.00
2018-08-18T13:44:30.994Z,30.00
2018-08-18T13:46:59.495Z,29.90
2018-08-18T13:49:28.333Z,28.70
2018-08-18T13:51:56.851Z,27.80
2018-08-18T13:54:25.315Z,28.50
2018-08-18T13:56:53.784Z,28.70
2018-08-18T13:59:42.888Z,29.40
2018-08-18T14:02:11.608Z,29.00
2018-08-18T14:04:40.855Z,30.00
2018-08-18T14:07:09.597Z,30.10
2018-08-18T14:09:38.219Z,30.00
2018-08-18T14:12:12.051Z,30.00
2018-08-18T14:14:40.516Z,31.40
2018-08-18T14:17:09.850Z,31.10
2018-08-18T14:19:38.359Z,30.20
2018-08-18T14:22:08.685Z,29.80
2018-08-18T14:24:38.336Z,30.00
2018-08-18T14:27:14.038Z,30.00
2018-08-18T14:29:42.583Z,29.20
2018-08-18T14:32:19.405Z,29.50
2018-08-18T14:35:08.492Z,31.10
2018-08-18T14:37:38.743Z,30.60
2018-08-18T14:40:10.322Z,29.90
2018-08-18T14:42:38.765Z,30.00
2018-08-18T14:45:09.835Z,29.70
2018-08-18T14:47:38.317Z,29.80
2018-08-18T14:50:15.393Z,29.40
2018-08-18T14:52:45.014Z,29.90
2018-08-18T14:55:13.808Z,30.20
2018-08-18T14:57:48.102Z,31.10
2018-08-18T15:00:16.581Z,31.30
2018-08-18T15:02:45.069Z,31.60
2018-08-18T15:05:13.560Z,33.20
2018-08-18T15:07:55.387Z,33.30
2018-08-18T15:10:46.317Z,33.30
2018-08-18T15:13:15.273Z,34.50
2018-08-18T15:15:43.794Z,34.10
2018-08-18T15:18:15.837Z,32.60
2018-08-18T15:20:44.937Z,33.60
2018-08-18T15:23:14.378Z,32.90
2018-08-18T15:25:43.568Z,33.40
2018-08-18T15:28:13.509Z,34.00
2018-08-18T15:30:43.676Z,33.30
2018-08-18T15:33:15.973Z,34.40
2018-08-18T15:35:45.030Z,34.70
2018-08-18T15:38:14.303Z,35.00
2018-08-18T15:40:43.112Z,35.50
2018-08-18T15:43:11.609Z,36.40
2018-08-18T15:45:55.087Z,36.60
2018-08-18T15:48:23.513Z,36.60
2018-08-18T15:50:52.061Z,36.20
2018-08-18T15:53:23.282Z,36.00
2018-08-18T15:55:51.728Z,35.90
2018-08-18T15:58:20.190Z,36.20
2018-08-18T16:00:48.674Z,37.10
2018-08-18T16:03:17.138Z,36.30
2018-08-18T16:05:45.605Z,36.80
2018-08-18T16:08:14.103Z,37.20
2018-08-18T16:10:42.594Z,37.30
2018-08-18T16:13:11.099Z,37.40
2018-08-18T16:15:39.602Z,38.10
2018-08-18T16:18:08.118Z,38.50
2018-08-18T16:20:36.568Z,38.50
2018-08-18T16:23:09.592Z,38.80
2018-08-18T16:25:39.165Z,38.70
2018-08-18T16:28:09.205Z,38.80
2018-08-18T16:30:38.391Z,38.90
2018-08-18T16:33:13.556Z,39.30
2018-08-18T16:35:43.225Z,39.50
2018-08-18T16:38:11.857Z,39.50
2018-08-18T16:40:40.627Z,39.90
2018-08-18T16:43:11.369Z,39.40
2018-08-18T16:45:39.825Z,40.00
2018-08-18T16:48:09.655Z,40.00
2018-08-18T16:50:39.042Z,39.90
2018-08-18T16:53:08.772Z,40.10
2018-08-18T16:55:41.630Z,40.30
2018-08-18T16:58:10.263Z,40.40
2018-08-18T17:00:58.499Z,40.40
2018-08-18T17:03:34.399Z,40.50
2018-08-18T17:06:04.870Z,40.60
2018-08-18T17:08:33.382Z,40.80
2018-08-18T17:11:01.874Z,40.70
2018-08-18T17:13:33.786Z,40.90
2018-08-18T17:16:02.350Z,41.20
2018-08-18T17:18:30.979Z,41.50
2018-08-18T17:21:00.653Z,41.90
2018-08-18T17:23:30.851Z,42.10
2018-08-18T17:25:59.330Z,42.50
2018-08-18T17:28:28.683Z,42.30
2018-08-18T17:30:57.127Z,42.30
2018-08-18T17:33:26.847Z,42.50
2018-08-18T17:35:55.341Z,43.10
2018-08-18T17:38:23.899Z,43.60
2018-08-18T17:40:52.438Z,43.80
2018-08-18T17:43:21.583Z,44.20
2018-08-18T17:45:57.447Z,45.10
2018-08-18T17:48:27.032Z,44.60
2018-08-18T17:50:55.923Z,44.80
2018-08-18T17:53:24.641Z,45.10
2018-08-18T17:55:58.520Z,45.20
2018-08-18T17:58:27.441Z,45.40
2018-08-18T18:00:55.895Z,45.70
2018-08-18T18:03:24.431Z,46.00
2018-08-18T18:05:53.573Z,46.10
2018-08-18T18:08:22.153Z,46.20
2018-08-18T18:10:50.670Z,46.30
2018-08-18T18:13:26.002Z,46.50
2018-08-18T18:15:54.684Z,46.40
2018-08-18T18:18:24.252Z,46.50
2018-08-18T18:20:53.985Z,46.70
2018-08-18T18:23:22.941Z,46.90
2018-08-18T18:25:51.527Z,47.10
2018-08-18T18:28:20.032Z,47.10
2018-08-18T18:30:51.775Z,47.20
2018-08-18T18:33:20.484Z,47.30
2018-08-18T18:35:50.394Z,47.50
2018-08-18T18:38:18.877Z,47.90
2018-08-18T18:40:47.490Z,48.10
2018-08-18T18:43:15.949Z,48.20
2018-08-18T18:45:44.584Z,48.40
2018-08-18T18:48:13.836Z,48.50
2018-08-18T18:50:45.223Z,48.70
2018-08-18T18:53:13.754Z,49.00
2018-08-18T18:55:47.562Z,49.40
2018-08-18T18:58:16.100Z,49.80
2018-08-18T19:00:53.695Z,50.10
2018-08-18T19:03:22.204Z,50.40
2018-08-18T19:05:50.783Z,50.70
2018-08-18T19:08:21.170Z,50.90
2018-08-18T19:10:50.282Z,51.00
2018-08-18T19:13:18.822Z,51.10
2018-08-18T19:15:47.473Z,51.30
2018-08-18T19:18:16.034Z,51.30
2018-08-18T19:20:44.474Z,51.70
2018-08-18T19:23:18.102Z,52.10
2018-08-18T19:25:48.084Z,52.50
2018-08-18T19:28:23.310Z,52.80
2018-08-18T19:30:51.837Z,53.00
2018-08-18T19:33:20.584Z,53.20
2018-08-18T19:35:50.146Z,53.10
2018-08-18T19:38:19.681Z,53.20
2018-08-18T19:40:49.444Z,53.20
2018-08-18T19:43:20.165Z,53.40
2018-08-18T19:45:49.081Z,53.70
2018-08-18T19:48:18.618Z,53.90
2018-08-18T19:50:54.389Z,54.00
2018-08-18T19:53:24.302Z,54.30
2018-08-18T19:55:54.183Z,54.50
2018-08-18T19:58:24.492Z,54.60
2018-08-18T20:00:53.658Z,54.70
2018-08-18T20:03:22.609Z,54.80
2018-08-18T20:05:51.090Z,54.80
2018-08-18T20:08:21.402Z,55.10
2018-08-18T20:10:56.302Z,55.50
2018-08-18T20:13:31.859Z,56.50
2018-08-18T20:16:01.774Z,56.80
2018-08-18T20:18:31.679Z,57.10
2018-08-18T20:21:00.494Z,57.20
2018-08-18T20:23:28.981Z,57.40
2018-08-18T20:25:57.482Z,57.40
2018-08-18T20:28:26.013Z,57.40
2018-08-18T20:30:54.486Z,57.40
2018-08-18T20:33:23.060Z,57.40
2018-08-18T20:35:51.526Z,57.30
2018-08-18T20:38:20.031Z,57.40
2018-08-18T20:40:48.543Z,57.60
2018-08-18T20:43:17.178Z,57.60
2018-08-18T20:45:48.477Z,57.60
2018-08-18T20:48:19.712Z,57.70
2018-08-18T20:50:48.718Z,57.60
2018-08-18T20:53:17.822Z,57.60
2018-08-18T20:55:54.585Z,57.50
2018-08-18T20:58:23.150Z,57.50
2018-08-18T21:00:51.714Z,57.60
2018-08-18T21:03:20.281Z,57.70
2018-08-18T21:05:48.760Z,57.70
2018-08-18T21:08:19.961Z,57.70
2018-08-18T21:10:49.105Z,57.80
2018-08-18T21:13:17.604Z,58.10
2018-08-18T21:15:46.117Z,58.10
2018-08-18T21:18:17.479Z,58.60
2018-08-18T21:20:46.098Z,58.70
2018-08-18T21:23:14.560Z,58.80
2018-08-18T21:25:47.914Z,58.90
2018-08-18T21:28:17.759Z,59.00
2018-08-18T21:30:46.716Z,59.00
2018-08-18T21:33:15.217Z,59.20
2018-08-18T21:35:43.731Z,59.60
2018-08-18T21:38:12.395Z,60.00
2018-08-18T21:40:40.976Z,60.10
2018-08-18T21:43:20.285Z,60.20
2018-08-18T21:45:48.821Z,60.40
2018-08-18T21:48:17.346Z,60.50
2018-08-18T21:50:46.722Z,60.90
2018-08-18T21:53:15.554Z,61.00
2018-08-18T21:55:44.058Z,61.10
2018-08-18T21:58:12.549Z,61.30
2018-08-18T22:00:42.122Z,61.40
2018-08-18T22:03:10.754Z,61.40
2018-08-18T22:05:39.299Z,61.40
2018-08-18T22:08:09.910Z,61.30
2018-08-18T22:10:41.534Z,61.60
2018-08-18T22:13:10.024Z,61.90
2018-08-18T22:15:38.541Z,62.20
2018-08-18T22:18:07.084Z,62.40
2018-08-18T22:20:35.629Z,62.30
2018-08-18T22:23:07.005Z,62.70
2018-08-18T22:25:35.577Z,62.60
2018-08-18T22:28:04.145Z,63.10
2018-08-18T22:30:32.749Z,63.30
2018-08-18T22:33:01.206Z,63.40
2018-08-18T22:35:29.678Z,63.40
2018-08-18T22:37:58.132Z,63.10
2018-08-18T22:40:26.650Z,63.20
2018-08-18T22:42:55.126Z,63.30
2018-08-18T22:45:28.128Z,63.40
2018-08-18T22:47:56.650Z,63.30
2018-08-18T22:50:25.157Z,63.70
2018-08-18T22:52:54.526Z,63.70
2018-08-18T22:55:23.072Z,63.80
2018-08-18T22:57:57.766Z,63.80
2018-08-18T23:00:26.366Z,63.90
2018-08-18T23:02:54.846Z,63.80
2018-08-18T23:05:23.381Z,63.80
2018-08-18T23:07:54.702Z,64.10
2018-08-18T23:10:25.842Z,64.40
2018-08-18T23:12:54.315Z,64.60
2018-08-18T23:15:22.797Z,64.70
2018-08-18T23:17:51.363Z,65.20
2018-08-18T23:20:19.958Z,65.70
2018-08-18T23:22:56.300Z,66.10
2018-08-18T23:25:26.252Z,66.30
2018-08-18T23:27:55.054Z,66.50
2018-08-18T23:30:28.812Z,66.50
2018-08-18T23:32:57.390Z,66.50
2018-08-18T23:35:27.347Z,66.70
2018-08-18T23:37:56.175Z,67.00
2018-08-18T23:40:24.829Z,67.00
2018-08-18T23:42:53.389Z,66.90
2018-08-18T23:45:22.270Z,67.00
2018-08-18T23:47:56.892Z,67.70
2018-08-18T23:50:26.840Z,67.90
2018-08-18T23:52:59.947Z,68.30
2018-08-18T23:55:29.343Z,68.40
2018-08-18T23:57:58.234Z,68.30
